Owosso, MI

7:27 AM EST on February 22, 2017 (GMT -0500)
Fayette Square II | | Change Station
Active Advisory: Marine Fog Advisory

Elev 764 ft 43.00 °N, 84.17 °W | Updated 2 minutes ago

Clear
Clear
47.2 °F
Feels Like 45 °F
N
5.0
Wind Variable Wind from SSW
Gusts 7.0 mph

Today
High -- | Low -- °F
--% Chance of Precip.
Yesterday
High -- | Low -- °F
Precip. -- in
Pressure 29.83 in
Visibility 3.0 miles
Clouds Clear
Windchill 45 °F
Dew Point 46 °F
Humidity 96%
Rainfall 0.00 in
Snow Depth Not available.
7:23 AM 6:17 PM
Waning Crescent, 17% visible
METAR KRNP 221215Z AUTO 19003KT 3SM BR CLR 08/08 A2983 RMK AO2 T00750075
Pressure 29.83 in
Visibility 3.0 miles
Clouds Clear
Windchill 45 °F
Dew Point 46 °F
Humidity 96%
Rainfall 0.00 in
Snow Depth Not available.
7:23 AM 6:17 PM
Waning Crescent, 17% visible
METAR KRNP 221215Z AUTO 19003KT 3SM BR CLR 08/08 A2983 RMK AO2 T00750075

Get Your Daily Forecast Email!

Thanks for signing up!

Be on the lookout for a verification email in your inbox.

You'll start receiving the daily forecast at 8 AM.

×

10-Day Weather Forecast

Almanac

Astronomy

Feb. 22, 2017 Rise Set
Actual Time
Civil Twilight
Nautical Twilight
Astronomical Twilight
Moon
Length of Visible Light
Length of Day
Tomorrow will be .
, % of the Moon is Illuminated

Today's Extremes

State Highs State Lows

Community

WunderPhotos

Upload Photos

1,962,540 photos uploaded!

WunderBlog® & News

Nearby

Air Quality

  Air Quality AQ Index Pollutant
Not available.

Snow Depth

Station Depth Elevation

Earthquake Activity

City Distance Mag. Time & Date
Minimum magnitude displayed is 2.5.

Coastal Water Temperatures

Place Temperature

Stations

Nearby Weather Stations

Station Location Temp. Windchill Dew Point Humidity Wind Precip. Elev Updated Type
                   

Watches & Warnings

Marine Fog Advisory
Issued: 3:02 AM EST Feb. 22, 2017 – National Weather Service

... Dense fog advisory in effect until 4 PM EST this afternoon...

The National Weather Service in Detroit/Pontiac has issued a
dense fog advisory... which is in effect until 4 PM EST this
afternoon.

* Expect dense fog with visibilities of one quarter of a mile or
less until 4 PM EST this afternoon.

Refer to the latest marine forecasts for greater detail.

Precautionary/preparedness actions...

A dense fog advisory means visibilities will frequently be
reduced to less than one mile. Inexperienced mariners, especially
those operating smaller vessels, should avoid navigating in these
conditions.



Jvc